sensor_id;sensor_type;location;lat;lon;timestamp;pressure;altitude;pressure_sealevel;temperature;humidity
11198;BME280;5655;48.744;9.162;2022-12-18T00:01:06;97114.41;;;-6.03;100.00
11198;BME280;5655;48.744;9.162;2022-12-18T00:03:38;97123.66;;;-6.28;100.00
11198;BME280;5655;48.744;9.162;2022-12-18T00:06:03;97121.03;;;-6.28;100.00
11198;BME280;5655;48.744;9.162;2022-12-18T00:08:29;97130.84;;;-6.19;100.00
11198;BME280;5655;48.744;9.162;2022-12-18T00:10:54;97116.00;;;-6.18;100.00
11198;BME280;5655;48.744;9.162;2022-12-18T00:13:20;97114.28;;;-6.13;100.00
11198;BME280;5655;48.744;9.162;2022-12-18T00:15:45;97118.50;;;-6.07;100.00
11198;BME280;5655;48.744;9.162;2022-12-18T00:18:10;97119.94;;;-6.49;100.00
11198;BME280;5655;48.744;9.162;2022-12-18T00:20:37;97119.84;;;-6.21;100.00
11198;BME280;5655;48.744;9.162;2022-12-18T00:23:03;97122.78;;;-6.01;100.00
11198;BME280;5655;48.744;9.162;2022-12-18T00:25:29;97123.34;;;-6.32;100.00
11198;BME280;5655;48.744;9.162;2022-12-18T00:27:54;97112.84;;;-6.20;100.00
11198;BME280;5655;48.744;9.162;2022-12-18T00:30:20;97116.72;;;-5.84;100.00
11198;BME280;5655;48.744;9.162;2022-12-18T00:32:45;97113.53;;;-6.25;100.00
11198;BME280;5655;48.744;9.162;2022-12-18T00:35:10;97107.47;;;-6.14;100.00
11198;BME280;5655;48.744;9.162;2022-12-18T00:37:36;97119.78;;;-6.09;100.00
11198;BME280;5655;48.744;9.162;2022-12-18T00:40:02;97130.97;;;-6.25;100.00
11198;BME280;5655;48.744;9.162;2022-12-18T00:42:27;97131.63;;;-6.35;100.00
11198;BME280;5655;48.744;9.162;2022-12-18T00:45:11;97134.69;;;-6.38;100.00
11198;BME280;5655;48.744;9.162;2022-12-18T00:47:36;97136.66;;;-6.28;100.00
11198;BME280;5655;48.744;9.162;2022-12-18T00:50:02;97129.75;;;-6.39;100.00
11198;BME280;5655;48.744;9.162;2022-12-18T00:52:27;97133.03;;;-6.44;100.00
11198;BME280;5655;48.744;9.162;2022-12-18T00:54:52;97135.09;;;-6.46;100.00
11198;BME280;5655;48.744;9.162;2022-12-18T00:57:18;97134.88;;;-6.73;100.00
11198;BME280;5655;48.744;9.162;2022-12-18T00:59:43;97129.50;;;-6.83;100.00
11198;BME280;5655;48.744;9.162;2022-12-18T01:02:08;97134.75;;;-6.66;100.00
11198;BME280;5655;48.744;9.162;2022-12-18T01:04:34;97131.97;;;-6.76;100.00
11198;BME280;5655;48.744;9.162;2022-12-18T01:06:59;97130.31;;;-6.82;100.00
11198;BME280;5655;48.744;9.162;2022-12-18T01:09:24;97133.63;;;-6.99;100.00
11198;BME280;5655;48.744;9.162;2022-12-18T01:11:50;97126.41;;;-6.52;100.00
11198;BME280;5655;48.744;9.162;2022-12-18T01:14:15;97128.44;;;-6.70;100.00
11198;BME280;5655;48.744;9.162;2022-12-18T01:16:40;97129.63;;;-6.90;100.00
11198;BME280;5655;48.744;9.162;2022-12-18T01:19:06;97122.03;;;-6.79;100.00
11198;BME280;5655;48.744;9.162;2022-12-18T01:21:31;97122.75;;;-6.67;100.00
11198;BME280;5655;48.744;9.162;2022-12-18T01:23:57;97128.81;;;-6.78;100.00
11198;BME280;5655;48.744;9.162;2022-12-18T01:26:23;97130.97;;;-6.42;100.00
11198;BME280;5655;48.744;9.162;2022-12-18T01:28:49;97138.66;;;-6.80;100.00
11198;BME280;5655;48.744;9.162;2022-12-18T01:31:19;97132.75;;;-6.31;100.00
11198;BME280;5655;48.744;9.162;2022-12-18T01:33:45;97119.47;;;-6.29;100.00
11198;BME280;5655;48.744;9.162;2022-12-18T01:36:20;97128.84;;;-6.28;100.00
11198;BME280;5655;48.744;9.162;2022-12-18T01:38:46;97133.94;;;-6.22;100.00
11198;BME280;5655;48.744;9.162;2022-12-18T01:41:12;97135.44;;;-6.26;100.00
11198;BME280;5655;48.744;9.162;2022-12-18T01:43:57;97133.53;;;-6.14;100.00
11198;BME280;5655;48.744;9.162;2022-12-18T01:46:23;97138.72;;;-6.47;100.00
11198;BME280;5655;48.744;9.162;2022-12-18T01:48:52;97142.59;;;-6.33;100.00
11198;BME280;5655;48.744;9.162;2022-12-18T01:51:19;97137.00;;;-6.25;100.00
11198;BME280;5655;48.744;9.162;2022-12-18T01:53:46;97130.22;;;-6.26;100.00
11198;BME280;5655;48.744;9.162;2022-12-18T01:56:17;97142.13;;;-5.97;100.00
11198;BME280;5655;48.744;9.162;2022-12-18T01:58:56;97134.47;;;-6.20;100.00
11198;BME280;5655;48.744;9.162;2022-12-18T02:01:24;97143.84;;;-6.02;100.00
11198;BME280;5655;48.744;9.162;2022-12-18T02:03:51;97136.66;;;-6.28;100.00
11198;BME280;5655;48.744;9.162;2022-12-18T02:06:42;97118.69;;;-6.13;100.00
11198;BME280;5655;48.744;9.162;2022-12-18T02:09:15;97123.16;;;-5.92;100.00
11198;BME280;5655;48.744;9.162;2022-12-18T02:14:39;97129.81;;;-6.18;100.00
11198;BME280;5655;48.744;9.162;2022-12-18T02:28:32;97124.53;;;-6.06;100.00
11198;BME280;5655;48.744;9.162;2022-12-18T02:31:01;97123.03;;;-6.19;100.00
11198;BME280;5655;48.744;9.162;2022-12-18T02:33:29;97134.78;;;-6.16;100.00
11198;BME280;5655;48.744;9.162;2022-12-18T02:35:56;97137.31;;;-6.05;100.00
11198;BME280;5655;48.744;9.162;2022-12-18T02:38:23;97146.59;;;-6.42;100.00
11198;BME280;5655;48.744;9.162;2022-12-18T02:40:50;97149.22;;;-6.25;100.00
11198;BME280;5655;48.744;9.162;2022-12-18T02:43:16;97152.47;;;-6.35;100.00
11198;BME280;5655;48.744;9.162;2022-12-18T02:45:52;97152.16;;;-6.22;100.00
11198;BME280;5655;48.744;9.162;2022-12-18T02:48:22;97145.75;;;-6.31;100.00
11198;BME280;5655;48.744;9.162;2022-12-18T02:53:33;97139.66;;;-6.53;100.00
11198;BME280;5655;48.744;9.162;2022-12-18T02:56:15;97154.69;;;-6.27;100.00
11198;BME280;5655;48.744;9.162;2022-12-18T02:58:58;97159.00;;;-6.49;100.00
11198;BME280;5655;48.744;9.162;2022-12-18T03:01:35;97141.00;;;-6.34;100.00
11198;BME280;5655;48.744;9.162;2022-12-18T03:04:09;97143.59;;;-6.51;100.00
11198;BME280;5655;48.744;9.162;2022-12-18T03:06:46;97138.16;;;-6.49;100.00
11198;BME280;5655;48.744;9.162;2022-12-18T03:09:21;97128.94;;;-6.57;100.00
11198;BME280;5655;48.744;9.162;2022-12-18T03:11:54;97141.97;;;-6.40;100.00
11198;BME280;5655;48.744;9.162;2022-12-18T03:14:41;97144.69;;;-6.63;100.00
11198;BME280;5655;48.744;9.162;2022-12-18T03:17:10;97152.97;;;-6.66;100.00
11198;BME280;5655;48.744;9.162;2022-12-18T03:19:39;97155.59;;;-6.33;100.00
11198;BME280;5655;48.744;9.162;2022-12-18T03:22:07;97162.41;;;-6.32;100.00
11198;BME280;5655;48.744;9.162;2022-12-18T03:24:33;97168.88;;;-6.34;100.00
11198;BME280;5655;48.744;9.162;2022-12-18T03:27:03;97173.78;;;-6.21;100.00
11198;BME280;5655;48.744;9.162;2022-12-18T03:29:37;97161.63;;;-6.16;100.00
11198;BME280;5655;48.744;9.162;2022-12-18T03:32:10;97163.38;;;-6.21;100.00
11198;BME280;5655;48.744;9.162;2022-12-18T03:34:38;97164.31;;;-6.11;100.00
11198;BME280;5655;48.744;9.162;2022-12-18T03:37:06;97166.59;;;-6.31;100.00
11198;BME280;5655;48.744;9.162;2022-12-18T03:39:34;97159.72;;;-6.37;100.00
11198;BME280;5655;48.744;9.162;2022-12-18T03:47:13;97162.69;;;-6.45;100.00
11198;BME280;5655;48.744;9.162;2022-12-18T03:52:41;97156.59;;;-6.67;100.00
11198;BME280;5655;48.744;9.162;2022-12-18T03:55:09;97151.72;;;-6.92;100.00
11198;BME280;5655;48.744;9.162;2022-12-18T03:57:36;97163.50;;;-7.01;100.00
11198;BME280;5655;48.744;9.162;2022-12-18T04:00:09;97165.47;;;-6.80;100.00
11198;BME280;5655;48.744;9.162;2022-12-18T04:02:37;97155.59;;;-7.06;100.00
11198;BME280;5655;48.744;9.162;2022-12-18T04:05:06;97156.19;;;-7.16;100.00
11198;BME280;5655;48.744;9.162;2022-12-18T04:07:32;97159.03;;;-7.29;100.00
11198;BME280;5655;48.744;9.162;2022-12-18T04:10:00;97162.78;;;-7.25;100.00
11198;BME280;5655;48.744;9.162;2022-12-18T04:12:28;97154.81;;;-7.47;100.00
11198;BME280;5655;48.744;9.162;2022-12-18T04:14:54;97143.88;;;-7.60;100.00
11198;BME280;5655;48.744;9.162;2022-12-18T04:17:20;97154.94;;;-7.53;100.00
11198;BME280;5655;48.744;9.162;2022-12-18T04:19:46;97157.66;;;-7.71;100.00
11198;BME280;5655;48.744;9.162;2022-12-18T04:22:11;97165.44;;;-7.83;100.00
11198;BME280;5655;48.744;9.162;2022-12-18T04:24:37;97165.00;;;-7.80;100.00
11198;BME280;5655;48.744;9.162;2022-12-18T04:27:02;97164.22;;;-8.04;100.00
11198;BME280;5655;48.744;9.162;2022-12-18T04:29:28;97160.25;;;-8.06;100.00
11198;BME280;5655;48.744;9.162;2022-12-18T04:31:53;97171.00;;;-8.03;100.00
11198;BME280;5655;48.744;9.162;2022-12-18T04:34:19;97169.84;;;-8.07;100.00
11198;BME280;5655;48.744;9.162;2022-12-18T04:36:45;97177.94;;;-8.27;100.00
11198;BME280;5655;48.744;9.162;2022-12-18T04:39:10;97178.31;;;-8.35;100.00
11198;BME280;5655;48.744;9.162;2022-12-18T04:41:35;97184.75;;;-8.14;100.00
11198;BME280;5655;48.744;9.162;2022-12-18T04:44:01;97177.50;;;-8.35;100.00
11198;BME280;5655;48.744;9.162;2022-12-18T04:46:26;97170.72;;;-8.36;100.00
11198;BME280;5655;48.744;9.162;2022-12-18T04:48:52;97172.66;;;-8.43;100.00
11198;BME280;5655;48.744;9.162;2022-12-18T04:51:17;97167.66;;;-8.56;100.00
11198;BME280;5655;48.744;9.162;2022-12-18T04:53:42;97168.13;;;-8.36;100.00
11198;BME280;5655;48.744;9.162;2022-12-18T04:56:13;97147.50;;;-8.08;100.00
11198;BME280;5655;48.744;9.162;2022-12-18T04:58:40;97147.59;;;-8.26;100.00
11198;BME280;5655;48.744;9.162;2022-12-18T05:01:06;97140.38;;;-8.36;100.00
11198;BME280;5655;48.744;9.162;2022-12-18T05:03:33;97146.81;;;-8.38;100.00
11198;BME280;5655;48.744;9.162;2022-12-18T05:05:58;97142.06;;;-8.41;100.00
11198;BME280;5655;48.744;9.162;2022-12-18T05:08:23;97143.03;;;-8.65;100.00
11198;BME280;5655;48.744;9.162;2022-12-18T05:10:49;97141.38;;;-8.48;100.00
11198;BME280;5655;48.744;9.162;2022-12-18T05:13:14;97152.13;;;-8.75;100.00
11198;BME280;5655;48.744;9.162;2022-12-18T05:15:39;97149.06;;;-8.83;100.00
11198;BME280;5655;48.744;9.162;2022-12-18T05:18:05;97157.59;;;-8.64;100.00
11198;BME280;5655;48.744;9.162;2022-12-18T05:20:30;97149.53;;;-8.75;100.00
11198;BME280;5655;48.744;9.162;2022-12-18T05:22:56;97155.47;;;-8.56;100.00
11198;BME280;5655;48.744;9.162;2022-12-18T05:25:21;97160.03;;;-8.69;100.00
11198;BME280;5655;48.744;9.162;2022-12-18T05:27:47;97159.72;;;-8.61;100.00
11198;BME280;5655;48.744;9.162;2022-12-18T05:30:14;97161.19;;;-8.65;100.00
11198;BME280;5655;48.744;9.162;2022-12-18T05:32:40;97168.50;;;-8.62;100.00
11198;BME280;5655;48.744;9.162;2022-12-18T05:35:07;97184.69;;;-8.49;100.00
11198;BME280;5655;48.744;9.162;2022-12-18T05:37:33;97179.31;;;-8.77;100.00
11198;BME280;5655;48.744;9.162;2022-12-18T05:39:58;97178.34;;;-8.64;100.00
11198;BME280;5655;48.744;9.162;2022-12-18T05:42:24;97176.44;;;-8.57;100.00
11198;BME280;5655;48.744;9.162;2022-12-18T05:44:49;97177.44;;;-8.58;100.00
11198;BME280;5655;48.744;9.162;2022-12-18T05:47:14;97180.41;;;-8.85;100.00
11198;BME280;5655;48.744;9.162;2022-12-18T05:49:40;97172.50;;;-8.90;100.00
11198;BME280;5655;48.744;9.162;2022-12-18T05:52:05;97174.63;;;-8.87;100.00
11198;BME280;5655;48.744;9.162;2022-12-18T05:54:30;97163.41;;;-8.81;100.00
11198;BME280;5655;48.744;9.162;2022-12-18T05:56:56;97156.19;;;-8.79;100.00
11198;BME280;5655;48.744;9.162;2022-12-18T05:59:22;97157.81;;;-8.96;100.00
11198;BME280;5655;48.744;9.162;2022-12-18T06:01:47;97153.72;;;-9.03;100.00
11198;BME280;5655;48.744;9.162;2022-12-18T06:04:13;97168.13;;;-8.78;100.00
11198;BME280;5655;48.744;9.162;2022-12-18T06:06:38;97162.16;;;-8.78;100.00
11198;BME280;5655;48.744;9.162;2022-12-18T06:09:03;97169.50;;;-8.75;100.00
11198;BME280;5655;48.744;9.162;2022-12-18T06:11:36;97174.78;;;-8.40;100.00
11198;BME280;5655;48.744;9.162;2022-12-18T06:14:02;97180.16;;;-8.53;100.00
11198;BME280;5655;48.744;9.162;2022-12-18T06:16:28;97175.88;;;-8.59;100.00
11198;BME280;5655;48.744;9.162;2022-12-18T06:18:58;97177.25;;;-8.45;100.00
11198;BME280;5655;48.744;9.162;2022-12-18T06:21:24;97178.34;;;-8.64;100.00
11198;BME280;5655;48.744;9.162;2022-12-18T06:23:49;97171.66;;;-8.72;100.00
11198;BME280;5655;48.744;9.162;2022-12-18T06:26:14;97178.03;;;-8.56;100.00
11198;BME280;5655;48.744;9.162;2022-12-18T06:28:40;97183.94;;;-8.38;100.00
11198;BME280;5655;48.744;9.162;2022-12-18T06:31:06;97193.44;;;-8.61;100.00
11198;BME280;5655;48.744;9.162;2022-12-18T06:33:32;97193.72;;;-8.51;100.00
11198;BME280;5655;48.744;9.162;2022-12-18T06:36:05;97192.41;;;-8.19;100.00
11198;BME280;5655;48.744;9.162;2022-12-18T06:38:32;97191.16;;;-8.40;100.00
11198;BME280;5655;48.744;9.162;2022-12-18T06:40:58;97193.44;;;-8.61;100.00
11198;BME280;5655;48.744;9.162;2022-12-18T06:43:23;97195.66;;;-8.77;100.00
11198;BME280;5655;48.744;9.162;2022-12-18T06:45:49;97198.59;;;-8.73;100.00
11198;BME280;5655;48.744;9.162;2022-12-18T06:48:20;97200.94;;;-8.53;100.00
11198;BME280;5655;48.744;9.162;2022-12-18T06:50:46;97190.19;;;-8.57;100.00
11198;BME280;5655;48.744;9.162;2022-12-18T06:53:11;97194.41;;;-8.44;100.00
11198;BME280;5655;48.744;9.162;2022-12-18T06:55:37;97192.41;;;-8.42;100.00
11198;BME280;5655;48.744;9.162;2022-12-18T06:58:02;97191.06;;;-8.33;100.00
11198;BME280;5655;48.744;9.162;2022-12-18T07:00:27;97191.78;;;-8.56;100.00
11198;BME280;5655;48.744;9.162;2022-12-18T07:02:53;97195.66;;;-8.47;100.00
11198;BME280;5655;48.744;9.162;2022-12-18T07:05:18;97202.13;;;-8.67;100.00
11198;BME280;5655;48.744;9.162;2022-12-18T07:07:43;97216.06;;;-8.50;100.00
11198;BME280;5655;48.744;9.162;2022-12-18T07:10:09;97219.94;;;-8.41;100.00
11198;BME280;5655;48.744;9.162;2022-12-18T07:12:34;97219.53;;;-8.56;100.00
11198;BME280;5655;48.744;9.162;2022-12-18T07:14:59;97214.28;;;-8.38;100.00
11198;BME280;5655;48.744;9.162;2022-12-18T07:17:25;97223.56;;;-8.19;100.00
11198;BME280;5655;48.744;9.162;2022-12-18T07:19:50;97223.81;;;-8.09;100.00
11198;BME280;5655;48.744;9.162;2022-12-18T07:22:15;97223.72;;;-7.91;100.00
11198;BME280;5655;48.744;9.162;2022-12-18T07:24:40;97225.41;;;-7.85;100.00
11198;BME280;5655;48.744;9.162;2022-12-18T07:27:06;97230.53;;;-7.78;100.00
11198;BME280;5655;48.744;9.162;2022-12-18T07:29:31;97228.84;;;-7.72;100.00
11198;BME280;5655;48.744;9.162;2022-12-18T07:31:56;97224.78;;;-7.68;100.00
11198;BME280;5655;48.744;9.162;2022-12-18T07:34:22;97231.66;;;-7.62;100.00
11198;BME280;5655;48.744;9.162;2022-12-18T07:36:47;97227.56;;;-7.93;100.00
11198;BME280;5655;48.744;9.162;2022-12-18T07:39:12;97229.50;;;-7.77;100.00
11198;BME280;5655;48.744;9.162;2022-12-18T07:41:38;97232.34;;;-7.44;100.00
11198;BME280;5655;48.744;9.162;2022-12-18T07:44:09;97221.94;;;-7.78;100.00
11198;BME280;5655;48.744;9.162;2022-12-18T07:46:35;97228.38;;;-7.46;100.00
11198;BME280;5655;48.744;9.162;2022-12-18T07:49:00;97233.78;;;-7.36;100.00
11198;BME280;5655;48.744;9.162;2022-12-18T07:51:25;97244.41;;;-7.49;100.00
11198;BME280;5655;48.744;9.162;2022-12-18T07:53:51;97245.75;;;-7.23;100.00
11198;BME280;5655;48.744;9.162;2022-12-18T07:56:16;97240.75;;;-7.02;100.00
11198;BME280;5655;48.744;9.162;2022-12-18T07:58:41;97241.28;;;-6.88;100.00
11198;BME280;5655;48.744;9.162;2022-12-18T08:01:09;97236.69;;;-6.58;100.00
11198;BME280;5655;48.744;9.162;2022-12-18T08:03:35;97245.34;;;-6.80;100.00
11198;BME280;5655;48.744;9.162;2022-12-18T08:06:01;97234.94;;;-6.80;100.00
11198;BME280;5655;48.744;9.162;2022-12-18T08:08:28;97235.25;;;-6.65;100.00
11198;BME280;5655;48.744;9.162;2022-12-18T08:10:53;97239.13;;;-6.79;100.00
11198;BME280;5655;48.744;9.162;2022-12-18T08:13:19;97238.28;;;-6.57;100.00
11198;BME280;5655;48.744;9.162;2022-12-18T08:15:44;97241.72;;;-6.51;100.00
11198;BME280;5655;48.744;9.162;2022-12-18T08:18:09;97240.50;;;-6.49;100.00
11198;BME280;5655;48.744;9.162;2022-12-18T08:20:35;97237.19;;;-6.44;100.00
11198;BME280;5655;48.744;9.162;2022-12-18T08:23:00;97241.34;;;-6.15;100.00
11198;BME280;5655;48.744;9.162;2022-12-18T08:25:25;97237.53;;;-6.24;100.00
11198;BME280;5655;48.744;9.162;2022-12-18T08:27:51;97242.13;;;-6.31;100.00
11198;BME280;5655;48.744;9.162;2022-12-18T08:30:16;97240.25;;;-6.19;100.00
11198;BME280;5655;48.744;9.162;2022-12-18T08:32:41;97230.94;;;-6.15;100.00
11198;BME280;5655;48.744;9.162;2022-12-18T08:35:07;97239.22;;;-6.18;100.00
11198;BME280;5655;48.744;9.162;2022-12-18T08:37:33;97238.94;;;-6.05;100.00
11198;BME280;5655;48.744;9.162;2022-12-18T08:39:58;97231.56;;;-5.91;100.00
11198;BME280;5655;48.744;9.162;2022-12-18T08:42:24;97234.56;;;-5.99;100.00
11198;BME280;5655;48.744;9.162;2022-12-18T08:45:08;97240.34;;;-5.97;100.00
11198;BME280;5655;48.744;9.162;2022-12-18T08:47:34;97242.47;;;-5.94;100.00
11198;BME280;5655;48.744;9.162;2022-12-18T08:49:59;97248.00;;;-5.74;100.00
11198;BME280;5655;48.744;9.162;2022-12-18T08:52:24;97245.59;;;-5.42;100.00
11198;BME280;5655;48.744;9.162;2022-12-18T08:54:50;97243.41;;;-5.50;100.00
11198;BME280;5655;48.744;9.162;2022-12-18T08:57:15;97242.38;;;-5.49;100.00
11198;BME280;5655;48.744;9.162;2022-12-18T08:59:41;97241.78;;;-5.18;100.00
11198;BME280;5655;48.744;9.162;2022-12-18T09:02:09;97224.50;;;-5.02;100.00
11198;BME280;5655;48.744;9.162;2022-12-18T09:04:34;97221.22;;;-5.14;100.00
11198;BME280;5655;48.744;9.162;2022-12-18T09:07:00;97225.63;;;-5.15;100.00
11198;BME280;5655;48.744;9.162;2022-12-18T09:09:25;97221.31;;;-5.04;100.00
11198;BME280;5655;48.744;9.162;2022-12-18T09:11:50;97223.56;;;-5.13;100.00
11198;BME280;5655;48.744;9.162;2022-12-18T09:14:16;97225.72;;;-5.10;100.00
11198;BME280;5655;48.744;9.162;2022-12-18T09:16:41;97224.44;;;-4.85;100.00
11198;BME280;5655;48.744;9.162;2022-12-18T09:19:07;97226.25;;;-4.64;100.00
11198;BME280;5655;48.744;9.162;2022-12-18T09:21:34;97222.34;;;-4.62;100.00
11198;BME280;5655;48.744;9.162;2022-12-18T09:24:00;97217.59;;;-4.43;100.00
11198;BME280;5655;48.744;9.162;2022-12-18T09:26:26;97221.44;;;-4.24;100.00
11198;BME280;5655;48.744;9.162;2022-12-18T09:28:52;97211.09;;;-4.40;100.00
11198;BME280;5655;48.744;9.162;2022-12-18T09:31:19;97202.47;;;-4.41;100.00
11198;BME280;5655;48.744;9.162;2022-12-18T09:33:44;97207.72;;;-4.63;100.00
11198;BME280;5655;48.744;9.162;2022-12-18T09:36:12;97221.34;;;-4.34;100.00
11198;BME280;5655;48.744;9.162;2022-12-18T09:38:38;97224.59;;;-4.22;100.00
11198;BME280;5655;48.744;9.162;2022-12-18T09:41:15;97220.38;;;-4.28;100.00
11198;BME280;5655;48.744;9.162;2022-12-18T09:43:50;97223.22;;;-4.29;100.00
11198;BME280;5655;48.744;9.162;2022-12-18T09:46:40;97215.59;;;-4.04;100.00
11198;BME280;5655;48.744;9.162;2022-12-18T09:49:17;97222.59;;;-4.15;100.00
11198;BME280;5655;48.744;9.162;2022-12-18T09:54:45;97210.31;;;-3.82;100.00
11198;BME280;5655;48.744;9.162;2022-12-18T09:57:23;97198.16;;;-3.98;100.00
11198;BME280;5655;48.744;9.162;2022-12-18T09:59:56;97206.91;;;-3.83;100.00
11198;BME280;5655;48.744;9.162;2022-12-18T10:02:25;97206.56;;;-3.59;100.00
11198;BME280;5655;48.744;9.162;2022-12-18T10:08:10;97209.56;;;-3.36;100.00
11198;BME280;5655;48.744;9.162;2022-12-18T10:13:21;97213.88;;;-3.14;100.00
11198;BME280;5655;48.744;9.162;2022-12-18T10:15:57;97212.13;;;-3.04;100.00
11198;BME280;5655;48.744;9.162;2022-12-18T10:18:55;97219.97;;;-3.04;100.00
11198;BME280;5655;48.744;9.162;2022-12-18T10:21:51;97218.13;;;-3.03;100.00
11198;BME280;5655;48.744;9.162;2022-12-18T10:24:36;97216.56;;;-3.04;100.00
11198;BME280;5655;48.744;9.162;2022-12-18T10:27:23;97223.34;;;-2.41;100.00
11198;BME280;5655;48.744;9.162;2022-12-18T10:29:49;97219.94;;;-2.37;100.00
11198;BME280;5655;48.744;9.162;2022-12-18T10:32:18;97214.78;;;-1.86;100.00
11198;BME280;5655;48.744;9.162;2022-12-18T10:34:52;97208.47;;;-1.70;100.00
11198;BME280;5655;48.744;9.162;2022-12-18T10:37:21;97215.81;;;-1.97;100.00
11198;BME280;5655;48.744;9.162;2022-12-18T10:42:32;97219.16;;;-1.16;100.00
11198;BME280;5655;48.744;9.162;2022-12-18T10:45:07;97220.44;;;-0.98;100.00
11198;BME280;5655;48.744;9.162;2022-12-18T10:47:34;97224.72;;;-1.32;100.00
11198;BME280;5655;48.744;9.162;2022-12-18T10:49:59;97215.81;;;-1.62;100.00
11198;BME280;5655;48.744;9.162;2022-12-18T10:52:25;97212.31;;;-1.12;100.00
11198;BME280;5655;48.744;9.162;2022-12-18T10:54:57;97219.91;;;-0.31;100.00
11198;BME280;5655;48.744;9.162;2022-12-18T10:57:38;97226.53;;;-0.43;100.00
11198;BME280;5655;48.744;9.162;2022-12-18T11:02:46;97224.50;;;-0.57;100.00
11198;BME280;5655;48.744;9.162;2022-12-18T11:05:27;97217.31;;;0.03;100.00
11198;BME280;5655;48.744;9.162;2022-12-18T11:07:53;97205.19;;;-0.37;100.00
11198;BME280;5655;48.744;9.162;2022-12-18T11:10:21;97215.78;;;-0.03;100.00
11198;BME280;5655;48.744;9.162;2022-12-18T11:12:47;97209.44;;;0.03;100.00
11198;BME280;5655;48.744;9.162;2022-12-18T11:15:42;97198.34;;;0.40;100.00
11198;BME280;5655;48.744;9.162;2022-12-18T11:18:17;97203.56;;;0.45;100.00
11198;BME280;5655;48.744;9.162;2022-12-18T11:20:50;97202.50;;;0.75;100.00
11198;BME280;5655;48.744;9.162;2022-12-18T11:23:18;97181.75;;;0.39;100.00
11198;BME280;5655;48.744;9.162;2022-12-18T11:25:54;97184.41;;;0.92;100.00
11198;BME280;5655;48.744;9.162;2022-12-18T11:31:25;97194.56;;;0.51;100.00
11198;BME280;5655;48.744;9.162;2022-12-18T11:34:12;97184.25;;;1.07;100.00
11198;BME280;5655;48.744;9.162;2022-12-18T11:36:45;97178.94;;;0.31;100.00
11198;BME280;5655;48.744;9.162;2022-12-18T11:39:42;97191.69;;;1.00;100.00
11198;BME280;5655;48.744;9.162;2022-12-18T11:47:44;97180.84;;;0.25;100.00
11198;BME280;5655;48.744;9.162;2022-12-18T11:50:18;97183.44;;;0.59;100.00
11198;BME280;5655;48.744;9.162;2022-12-18T11:52:44;97182.59;;;0.64;100.00
11198;BME280;5655;48.744;9.162;2022-12-18T11:55:27;97186.50;;;0.66;100.00
11198;BME280;5655;48.744;9.162;2022-12-18T12:00:39;97180.13;;;1.20;100.00
11198;BME280;5655;48.744;9.162;2022-12-18T12:06:00;97160.97;;;0.90;100.00
11198;BME280;5655;48.744;9.162;2022-12-18T12:08:44;97158.50;;;0.99;100.00
11198;BME280;5655;48.744;9.162;2022-12-18T12:11:26;97158.19;;;0.82;100.00
11198;BME280;5655;48.744;9.162;2022-12-18T12:14:52;97151.81;;;0.83;100.00
11198;BME280;5655;48.744;9.162;2022-12-18T12:17:13;97152.31;;;0.61;100.00
11198;BME280;5655;48.744;9.162;2022-12-18T12:19:57;97142.56;;;0.62;100.00
11198;BME280;5655;48.744;9.162;2022-12-18T12:25:29;97157.00;;;0.40;100.00
11198;BME280;5655;48.744;9.162;2022-12-18T12:33:39;97152.88;;;0.58;100.00
11198;BME280;5655;48.744;9.162;2022-12-18T12:36:20;97157.00;;;0.40;100.00
11198;BME280;5655;48.744;9.162;2022-12-18T12:38:50;97161.34;;;0.26;100.00
11198;BME280;5655;48.744;9.162;2022-12-18T12:41:21;97164.16;;;0.01;100.00
11198;BME280;5655;48.744;9.162;2022-12-18T12:44:09;97159.41;;;0.08;100.00
11198;BME280;5655;48.744;9.162;2022-12-18T12:46:41;97154.31;;;0.17;100.00
11198;BME280;5655;48.744;9.162;2022-12-18T12:49:16;97156.91;;;0.51;100.00
11198;BME280;5655;48.744;9.162;2022-12-18T12:52:05;97165.81;;;-0.08;100.00
11198;BME280;5655;48.744;9.162;2022-12-18T12:54:32;97164.78;;;-0.12;100.00
11198;BME280;5655;48.744;9.162;2022-12-18T13:00:11;97176.03;;;-0.02;100.00
11198;BME280;5655;48.744;9.162;2022-12-18T13:02:59;97176.09;;;0.22;100.00
11198;BME280;5655;48.744;9.162;2022-12-18T13:05:33;97171.56;;;0.33;100.00
11198;BME280;5655;48.744;9.162;2022-12-18T13:08:08;97168.28;;;0.17;100.00
11198;BME280;5655;48.744;9.162;2022-12-18T13:15:48;97175.00;;;0.28;100.00
11198;BME280;5655;48.744;9.162;2022-12-18T13:18:18;97185.53;;;0.28;100.00
11198;BME280;5655;48.744;9.162;2022-12-18T13:31:01;97170.69;;;0.42;100.00
11198;BME280;5655;48.744;9.162;2022-12-18T13:36:23;97169.56;;;0.49;100.00
11198;BME280;5655;48.744;9.162;2022-12-18T13:39:31;97156.09;;;0.55;100.00
11198;BME280;5655;48.744;9.162;2022-12-18T13:44:34;97145.97;;;0.38;100.00
11198;BME280;5655;48.744;9.162;2022-12-18T13:47:01;97156.06;;;0.26;100.00
11198;BME280;5655;48.744;9.162;2022-12-18T13:49:41;97151.53;;;0.61;100.00
11198;BME280;5655;48.744;9.162;2022-12-18T13:52:20;97151.06;;;0.54;100.00
11198;BME280;5655;48.744;9.162;2022-12-18T13:54:55;97148.88;;;0.37;100.00
11198;BME280;5655;48.744;9.162;2022-12-18T13:57:36;97157.13;;;0.54;100.00
11198;BME280;5655;48.744;9.162;2022-12-18T14:02:44;97153.94;;;0.28;100.00
11198;BME280;5655;48.744;9.162;2022-12-18T14:05:28;97162.44;;;0.20;100.00
11198;BME280;5655;48.744;9.162;2022-12-18T14:08:04;97147.84;;;0.04;100.00
11198;BME280;5655;48.744;9.162;2022-12-18T14:10:30;97149.66;;;0.09;100.00
11198;BME280;5655;48.744;9.162;2022-12-18T14:12:57;97156.75;;;0.08;100.00
11198;BME280;5655;48.744;9.162;2022-12-18T14:15:33;97147.91;;;-0.06;100.00
11198;BME280;5655;48.744;9.162;2022-12-18T14:21:06;97161.56;;;-0.04;100.00
11198;BME280;5655;48.744;9.162;2022-12-18T14:26:00;97164.97;;;0.02;100.00
11198;BME280;5655;48.744;9.162;2022-12-18T14:28:26;97153.25;;;-0.16;100.00
11198;BME280;5655;48.744;9.162;2022-12-18T14:30:51;97159.94;;;-0.34;100.00
11198;BME280;5655;48.744;9.162;2022-12-18T14:33:25;97162.75;;;-0.20;100.00
11198;BME280;5655;48.744;9.162;2022-12-18T14:35:58;97155.91;;;-0.21;100.00
11198;BME280;5655;48.744;9.162;2022-12-18T14:41:09;97157.81;;;-0.76;100.00
11198;BME280;5655;48.744;9.162;2022-12-18T14:43:36;97155.19;;;-0.76;100.00
11198;BME280;5655;48.744;9.162;2022-12-18T14:46:24;97164.13;;;-0.82;100.00
11198;BME280;5655;48.744;9.162;2022-12-18T14:48:50;97167.19;;;-0.60;100.00
11198;BME280;5655;48.744;9.162;2022-12-18T14:51:19;97155.03;;;-0.46;100.00